Time;durP1;ratioP1;P1;durP2;ratioP2;P2;SDS_P1;SDS_P2;PMS_P1;PMS_P2;Temp;Humidity;BMP_temperature;BMP_pressure;BME280_temperature;BME280_humidity;BME280_pressure;Samples;Min_cycle;Max_cycle;Signal;HPM_P1;HPM_P2
2022/03/11 00:02:06;;;;;;;12.20;5.85;;;5.20;30.70;;;;;;4954688;29;20127;-72
2022/03/11 00:04:32;;;;;;;12.75;6.30;;;5.10;30.80;;;;;;4954686;29;20524;-73
2022/03/11 00:06:57;;;;;;;14.82;6.47;;;5.10;30.90;;;;;;4955243;28;20046;-72
2022/03/11 00:09:23;;;;;;;10.77;5.82;;;5.10;31.00;;;;;;4958292;29;20087;-72
2022/03/11 00:11:49;;;;;;;12.18;6.55;;;5.10;31.40;;;;;;4957340;29;20626;-73
2022/03/11 00:14:15;;;;;;;12.18;6.35;;;5.10;31.40;;;;;;4957281;29;20023;-72
2022/03/11 00:16:41;;;;;;;15.38;6.53;;;5.10;31.30;;;;;;4958293;29;20027;-72
2022/03/11 00:19:06;;;;;;;13.73;6.43;;;5.10;31.40;;;;;;4958198;29;20046;-72
2022/03/11 00:21:32;;;;;;;11.77;6.50;;;5.10;31.40;;;;;;4958173;28;20031;-72
2022/03/11 00:23:58;;;;;;;11.43;5.90;;;5.10;31.60;;;;;;4958195;29;20521;-72
2022/03/11 00:26:24;;;;;;;12.57;6.15;;;5.10;31.70;;;;;;4958173;29;20055;-73
2022/03/11 00:28:50;;;;;;;18.00;6.65;;;5.10;31.70;;;;;;4958111;29;20031;-73
2022/03/11 00:31:16;;;;;;;15.80;6.68;;;5.10;31.80;;;;;;4958051;29;20054;-71
2022/03/11 00:33:43;;;;;;;12.77;6.13;;;5.10;31.80;;;;;;4957879;29;20450;-73
2022/03/11 00:36:09;;;;;;;15.18;6.75;;;5.10;31.80;;;;;;4957925;28;20389;-70
2022/03/11 00:38:36;;;;;;;11.80;6.65;;;5.10;32.10;;;;;;4957886;28;20469;-71
2022/03/11 00:41:02;;;;;;;12.80;6.53;;;5.00;31.90;;;;;;4957844;28;20031;-71
2022/03/11 00:43:28;;;;;;;14.25;6.40;;;5.10;31.90;;;;;;4957860;28;20031;-73
2022/03/11 00:45:53;;;;;;;11.93;5.97;;;5.10;31.80;;;;;;4957792;28;20559;-71
2022/03/11 00:48:20;;;;;;;12.35;5.85;;;5.10;31.80;;;;;;4957701;28;20035;-71
2022/03/11 00:50:47;;;;;;;12.48;5.85;;;5.00;32.00;;;;;;4957529;28;20031;-71
2022/03/11 00:53:13;;;;;;;13.50;7.05;;;5.10;32.20;;;;;;4957623;28;20025;-73
2022/03/11 00:55:39;;;;;;;11.30;6.13;;;5.00;32.00;;;;;;4957572;28;20154;-74
2022/03/11 00:58:05;;;;;;;13.15;6.65;;;5.00;32.00;;;;;;4957361;28;20131;-71
2022/03/11 01:00:32;;;;;;;15.25;6.93;;;5.00;32.10;;;;;;4957541;28;20176;-73
2022/03/11 01:02:57;;;;;;;13.27;7.20;;;5.00;32.30;;;;;;4957451;28;20029;-72
2022/03/11 01:05:23;;;;;;;11.45;6.63;;;5.00;32.60;;;;;;4957514;28;20031;-73
2022/03/11 01:07:49;;;;;;;13.75;6.43;;;5.00;32.40;;;;;;4957352;28;20031;-71
2022/03/11 01:10:15;;;;;;;16.05;6.75;;;5.00;32.30;;;;;;4957219;28;20030;-71
2022/03/11 01:12:42;;;;;;;13.18;6.88;;;5.00;32.40;;;;;;4972168;28;20432;-72
2022/03/11 01:15:09;;;;;;;15.38;6.85;;;5.00;32.40;;;;;;4957278;28;20024;-73
2022/03/11 01:17:35;;;;;;;11.27;6.32;;;5.00;32.60;;;;;;4957211;28;20066;-71
2022/03/11 01:20:01;;;;;;;11.73;6.97;;;5.00;32.70;;;;;;4956091;28;20059;-71
2022/03/11 01:22:27;;;;;;;17.52;7.13;;;4.90;32.60;;;;;;4957145;28;20027;-72
2022/03/11 01:24:53;;;;;;;14.07;6.30;;;4.90;32.60;;;;;;4957116;28;20023;-72
2022/03/11 01:27:18;;;;;;;15.85;6.90;;;4.90;32.60;;;;;;4957069;28;20020;-71
2022/03/11 01:29:44;;;;;;;13.77;6.75;;;4.90;33.00;;;;;;4956920;28;20038;-71
2022/03/11 01:32:10;;;;;;;13.32;6.47;;;4.80;33.00;;;;;;4971657;28;20460;-74
2022/03/11 01:34:36;;;;;;;9.65;5.57;;;4.80;32.80;;;;;;4971766;28;20028;-72
2022/03/11 01:37:02;;;;;;;13.45;6.88;;;4.80;32.80;;;;;;4956852;28;20020;-73
2022/03/11 01:39:28;;;;;;;13.65;6.80;;;4.80;32.90;;;;;;4956878;28;20363;-72
2022/03/11 01:41:54;;;;;;;15.95;7.00;;;4.80;32.90;;;;;;4971677;28;20023;-73
2022/03/11 01:44:19;;;;;;;18.48;6.78;;;4.80;33.10;;;;;;4956784;28;20027;-71
2022/03/11 01:46:45;;;;;;;14.05;7.32;;;4.80;33.10;;;;;;4956762;28;20469;-73
2022/03/11 01:49:11;;;;;;;13.43;6.45;;;4.80;33.10;;;;;;4956733;28;20054;-72
2022/03/11 01:51:42;;;;;;;15.10;7.90;;;4.70;33.00;;;;;;4971964;28;20031;-72
2022/03/11 01:54:09;;;;;;;13.80;7.57;;;4.80;33.10;;;;;;4956520;28;20154;-72
2022/03/11 01:56:36;;;;;;;15.73;7.03;;;4.80;33.60;;;;;;4956449;28;20015;-72
2022/03/11 01:59:04;;;;;;;15.27;6.93;;;4.80;33.50;;;;;;4956236;28;20054;-71
2022/03/11 02:01:30;;;;;;;13.43;6.32;;;4.80;33.20;;;;;;4956410;28;20027;-73
2022/03/11 02:03:58;;;;;;;13.25;6.70;;;4.80;33.20;;;;;;4955037;29;20174;-71
2022/03/11 02:06:26;;;;;;;16.95;7.38;;;4.70;33.00;;;;;;4956256;28;20473;-72
2022/03/11 02:08:53;;;;;;;12.23;6.25;;;4.80;33.10;;;;;;4956149;28;20548;-72
2022/03/11 02:11:20;;;;;;;13.82;5.90;;;4.70;33.30;;;;;;4956138;28;20231;-73
2022/03/11 02:13:53;;;;;;;13.27;6.75;;;4.70;33.30;;;;;;4956076;28;20027;-73
2022/03/11 02:16:28;;;;;;;13.70;6.85;;;4.70;33.50;;;;;;4955702;28;20035;-73
2022/03/11 02:18:55;;;;;;;12.60;6.82;;;4.70;33.60;;;;;;4956037;28;20059;-74
2022/03/11 02:21:22;;;;;;;13.95;6.80;;;4.70;33.70;;;;;;4955980;28;20361;-73
2022/03/11 02:23:51;;;;;;;12.52;6.93;;;4.70;34.00;;;;;;4955948;28;20110;-71
2022/03/11 02:26:18;;;;;;;17.27;6.88;;;4.70;33.90;;;;;;4955873;28;20106;-72
2022/03/11 02:28:45;;;;;;;12.65;6.55;;;4.60;34.00;;;;;;4955725;28;20030;-71
2022/03/11 02:31:12;;;;;;;11.38;6.68;;;4.60;34.00;;;;;;4954239;28;20035;-72
2022/03/11 02:33:38;;;;;;;11.73;6.60;;;4.60;34.10;;;;;;4955849;28;20051;-72
2022/03/11 02:36:05;;;;;;;12.25;6.75;;;4.60;34.20;;;;;;4970578;28;20028;-72
2022/03/11 02:38:31;;;;;;;11.45;6.10;;;4.60;34.20;;;;;;4955729;29;20019;-72
2022/03/11 02:40:57;;;;;;;15.85;6.57;;;4.60;34.30;;;;;;4955771;28;20027;-72
2022/03/11 02:43:24;;;;;;;13.38;6.80;;;4.60;34.50;;;;;;4955689;28;20027;-73
2022/03/11 02:45:50;;;;;;;11.85;6.75;;;4.50;34.50;;;;;;4955651;28;20038;-72
2022/03/11 02:48:16;;;;;;;15.52;6.85;;;4.60;34.70;;;;;;4970341;28;20526;-73
2022/03/11 02:50:42;;;;;;;15.40;6.88;;;4.60;34.90;;;;;;4955461;28;20066;-71
2022/03/11 02:53:08;;;;;;;16.80;7.80;;;4.60;34.90;;;;;;4955512;28;20102;-71
2022/03/11 02:55:33;;;;;;;13.52;6.70;;;4.60;35.00;;;;;;4955462;28;20027;-73
2022/03/11 02:58:00;;;;;;;14.90;7.22;;;4.50;35.00;;;;;;4955271;28;20521;-71
2022/03/11 03:00:25;;;;;;;17.15;6.80;;;4.50;35.10;;;;;;4954107;29;20086;-71
2022/03/11 03:02:51;;;;;;;15.63;7.85;;;4.50;35.20;;;;;;4955395;29;20027;-73
2022/03/11 03:05:17;;;;;;;12.43;7.10;;;4.50;35.20;;;;;;4955282;28;20025;-71
2022/03/11 03:07:43;;;;;;;12.98;6.30;;;4.50;35.20;;;;;;4953921;29;20390;-72
2022/03/11 03:10:12;;;;;;;13.00;7.05;;;4.50;35.10;;;;;;4955170;28;20094;-70
2022/03/11 03:12:39;;;;;;;14.85;7.63;;;4.50;35.20;;;;;;4955261;28;20056;-72
2022/03/11 03:15:09;;;;;;;19.27;7.72;;;4.50;35.50;;;;;;4955201;28;20031;-73
2022/03/11 03:17:35;;;;;;;12.95;7.13;;;4.50;35.40;;;;;;4953947;29;20030;-73
2022/03/11 03:20:04;;;;;;;12.27;6.78;;;4.50;35.50;;;;;;4955166;28;20027;-71
2022/03/11 03:22:29;;;;;;;12.52;7.03;;;4.50;35.50;;;;;;4969890;28;20409;-72
2022/03/11 03:24:55;;;;;;;14.35;6.95;;;4.50;35.70;;;;;;4955048;28;20038;-73
2022/03/11 03:27:21;;;;;;;11.95;6.97;;;4.40;35.80;;;;;;4954912;28;20031;-71
2022/03/11 03:29:47;;;;;;;11.48;6.72;;;4.40;35.80;;;;;;4954990;28;20034;-71
2022/03/11 03:32:13;;;;;;;14.32;6.85;;;4.40;35.70;;;;;;4955031;28;20106;-72
2022/03/11 03:34:39;;;;;;;11.77;6.45;;;4.40;35.70;;;;;;4954878;28;20039;-72
2022/03/11 03:37:09;;;;;;;12.90;7.43;;;4.40;35.70;;;;;;4969716;28;20027;-72
2022/03/11 03:39:40;;;;;;;13.65;6.68;;;4.40;36.00;;;;;;4954969;28;20086;-73
2022/03/11 03:42:07;;;;;;;12.23;6.65;;;4.40;36.00;;;;;;4955753;28;20047;-72
2022/03/11 03:44:33;;;;;;;15.73;6.18;;;4.40;35.80;;;;;;4958853;28;20028;-71
2022/03/11 03:46:59;;;;;;;13.20;6.53;;;4.40;35.80;;;;;;4958816;28;20033;-73
2022/03/11 03:49:25;;;;;;;11.68;6.43;;;4.40;35.70;;;;;;4958794;28;20028;-73
2022/03/11 03:51:51;;;;;;;12.98;7.07;;;4.40;35.80;;;;;;4958646;28;20051;-73
2022/03/11 03:54:17;;;;;;;15.60;8.10;;;4.40;36.00;;;;;;4958641;28;20023;-72
2022/03/11 03:56:44;;;;;;;13.50;6.80;;;4.40;36.10;;;;;;4958666;28;20358;-72
2022/03/11 03:59:11;;;;;;;13.85;7.20;;;4.40;36.10;;;;;;4957348;29;20070;-73
2022/03/11 04:01:39;;;;;;;16.40;7.47;;;4.40;36.10;;;;;;4958537;28;20020;-71
2022/03/11 04:04:06;;;;;;;14.70;7.57;;;4.40;36.10;;;;;;4958515;28;20023;-71
2022/03/11 04:06:33;;;;;;;11.18;6.95;;;4.40;36.20;;;;;;4958458;28;20023;-71
2022/03/11 04:09:00;;;;;;;15.35;7.35;;;4.40;36.10;;;;;;4958353;28;20027;-72
2022/03/11 04:11:27;;;;;;;17.77;7.75;;;4.40;36.00;;;;;;4958372;28;20027;-72
2022/03/11 04:13:54;;;;;;;18.13;8.20;;;4.40;35.90;;;;;;4958348;28;20023;-73
2022/03/11 04:16:20;;;;;;;11.10;6.78;;;4.40;35.80;;;;;;4958107;28;20176;-73
2022/03/11 04:18:46;;;;;;;16.40;7.75;;;4.50;36.00;;;;;;4958248;28;20030;-73
2022/03/11 04:21:13;;;;;;;13.93;7.45;;;4.50;35.90;;;;;;4973054;28;20027;-73
2022/03/11 04:23:40;;;;;;;17.17;8.07;;;4.50;35.90;;;;;;4958168;29;20023;-72
2022/03/11 04:26:06;;;;;;;12.65;6.88;;;4.50;35.80;;;;;;4958057;29;20023;-71
2022/03/11 04:28:32;;;;;;;16.85;8.18;;;4.50;35.70;;;;;;4958254;28;20027;-73
2022/03/11 04:30:59;;;;;;;14.90;8.25;;;4.60;36.00;;;;;;4956720;29;20050;-71
2022/03/11 04:33:25;;;;;;;14.45;7.38;;;4.50;35.80;;;;;;4957965;28;20047;-72
2022/03/11 04:35:51;;;;;;;14.52;8.32;;;4.50;35.70;;;;;;4957794;28;20027;-72
2022/03/11 04:38:17;;;;;;;18.52;8.38;;;4.50;35.70;;;;;;4957929;28;20533;-72
2022/03/11 04:40:43;;;;;;;13.95;7.80;;;4.50;35.80;;;;;;4957761;28;20035;-72
2022/03/11 04:43:09;;;;;;;15.93;7.70;;;4.50;35.90;;;;;;4972737;28;20114;-71
2022/03/11 04:45:35;;;;;;;17.98;7.70;;;4.50;35.90;;;;;;4957849;28;20101;-71
2022/03/11 04:48:01;;;;;;;19.65;9.63;;;4.50;36.00;;;;;;4957762;28;20484;-72
2022/03/11 04:50:26;;;;;;;18.20;8.43;;;4.50;36.00;;;;;;4957698;28;20023;-72
2022/03/11 04:52:53;;;;;;;17.30;8.95;;;4.50;36.00;;;;;;4957592;28;20023;-73
2022/03/11 04:55:18;;;;;;;14.48;7.97;;;4.40;36.10;;;;;;4957625;28;20035;-73
2022/03/11 04:57:45;;;;;;;15.75;8.20;;;4.50;36.30;;;;;;4957448;28;20062;-72
2022/03/11 05:00:12;;;;;;;19.20;8.70;;;4.40;36.30;;;;;;4957524;28;20390;-71
2022/03/11 05:02:40;;;;;;;15.38;8.20;;;4.50;36.30;;;;;;4957459;28;20102;-72
2022/03/11 05:05:08;;;;;;;17.75;8.30;;;4.40;36.30;;;;;;4957864;28;20133;-72
2022/03/11 05:07:35;;;;;;;17.02;8.90;;;4.40;36.40;;;;;;4957239;28;20023;-72
2022/03/11 05:10:01;;;;;;;23.77;10.00;;;4.40;36.50;;;;;;4957169;28;20105;-74
2022/03/11 05:12:27;;;;;;;16.85;8.70;;;4.40;36.70;;;;;;4957221;28;20031;-72
2022/03/11 05:14:53;;;;;;;18.35;10.00;;;4.40;36.70;;;;;;4957270;28;20061;-71
2022/03/11 05:17:19;;;;;;;20.33;9.00;;;4.40;36.60;;;;;;4957039;28;20035;-71
2022/03/11 05:19:45;;;;;;;20.52;10.05;;;4.40;36.60;;;;;;4956991;28;20410;-71
2022/03/11 05:22:11;;;;;;;17.27;8.88;;;4.40;36.60;;;;;;4955906;29;20063;-71
2022/03/11 05:24:37;;;;;;;19.50;8.75;;;4.40;36.90;;;;;;4956913;28;20029;-71
2022/03/11 05:27:04;;;;;;;18.90;9.23;;;4.40;36.90;;;;;;4956965;28;20491;-71
2022/03/11 05:29:34;;;;;;;21.35;10.20;;;4.40;36.80;;;;;;4956847;28;20031;-71
2022/03/11 05:32:00;;;;;;;19.17;9.90;;;4.40;36.80;;;;;;4956856;28;20023;-71
2022/03/11 05:34:26;;;;;;;23.20;9.05;;;4.40;36.70;;;;;;4956871;28;20027;-72
2022/03/11 05:36:52;;;;;;;20.98;10.10;;;4.40;36.80;;;;;;4956746;28;20078;-71
2022/03/11 05:39:19;;;;;;;23.73;10.18;;;4.40;36.90;;;;;;4956715;28;20027;-71
2022/03/11 05:41:46;;;;;;;22.02;11.23;;;4.40;36.80;;;;;;4971577;28;20612;-72
2022/03/11 05:44:13;;;;;;;22.70;12.07;;;4.40;36.70;;;;;;4956717;29;20396;-73
2022/03/11 05:46:39;;;;;;;19.60;9.95;;;4.40;36.80;;;;;;4955326;29;20042;-73
2022/03/11 05:49:05;;;;;;;17.80;9.57;;;4.40;36.70;;;;;;4971481;28;20031;-73
2022/03/11 05:51:30;;;;;;;27.98;10.13;;;4.40;36.80;;;;;;4956461;28;20031;-71
2022/03/11 05:53:56;;;;;;;22.50;9.35;;;4.40;36.70;;;;;;4956512;28;20024;-71
2022/03/11 05:56:22;;;;;;;16.90;9.30;;;4.40;36.70;;;;;;4956458;28;20059;-73
2022/03/11 05:58:50;;;;;;;20.40;9.98;;;4.50;36.70;;;;;;4954613;28;20045;-72
2022/03/11 06:01:19;;;;;;;18.23;9.38;;;4.50;36.70;;;;;;4955714;28;20421;-72
2022/03/11 06:03:48;;;;;;;20.70;10.18;;;4.50;36.70;;;;;;4956225;28;20486;-71
2022/03/11 06:06:15;;;;;;;26.10;8.93;;;4.50;36.60;;;;;;4970483;28;20082;-72
2022/03/11 06:08:41;;;;;;;20.20;10.15;;;4.50;36.60;;;;;;4970989;28;20114;-72
2022/03/11 06:11:08;;;;;;;21.40;9.38;;;4.50;36.50;;;;;;4955616;29;20457;-72
2022/03/11 06:13:33;;;;;;;19.83;9.60;;;4.50;36.40;;;;;;4956171;29;20015;-73
2022/03/11 06:15:59;;;;;;;17.88;9.15;;;4.60;36.60;;;;;;4955359;29;20567;-73
2022/03/11 06:18:25;;;;;;;18.02;9.48;;;4.60;36.40;;;;;;4956094;28;20380;-74
2022/03/11 06:20:51;;;;;;;17.90;8.93;;;4.60;36.20;;;;;;4959207;28;20295;-73
2022/03/11 06:23:17;;;;;;;19.30;10.38;;;4.70;36.20;;;;;;4955710;29;20078;-71
2022/03/11 06:25:43;;;;;;;14.88;8.88;;;4.70;36.10;;;;;;4955791;29;20481;-72
2022/03/11 06:28:08;;;;;;;16.75;8.50;;;4.70;36.20;;;;;;4955908;28;20493;-72
2022/03/11 06:30:34;;;;;;;18.48;9.10;;;4.70;36.10;;;;;;4970551;28;20394;-71
2022/03/11 06:33:00;;;;;;;18.95;9.27;;;4.80;36.10;;;;;;4955844;28;20027;-74
2022/03/11 06:35:26;;;;;;;17.27;8.63;;;4.80;36.00;;;;;;4955619;29;20477;-72
2022/03/11 06:37:52;;;;;;;22.88;9.57;;;4.80;35.90;;;;;;4954311;28;20023;-71
2022/03/11 06:40:19;;;;;;;16.25;8.77;;;4.90;36.00;;;;;;4955615;28;20055;-71
2022/03/11 06:42:47;;;;;;;20.42;10.30;;;4.90;35.90;;;;;;4964854;28;20109;-74
2022/03/11 06:45:14;;;;;;;19.52;9.85;;;5.00;36.00;;;;;;4955631;29;20038;-71
2022/03/11 06:47:41;;;;;;;26.48;10.60;;;5.00;35.90;;;;;;4955233;29;20027;-72
2022/03/11 06:50:08;;;;;;;17.55;9.43;;;5.10;35.80;;;;;;4970210;28;20038;-74
2022/03/11 06:52:35;;;;;;;18.92;9.50;;;5.10;35.80;;;;;;4949105;28;20024;-72
2022/03/11 06:55:01;;;;;;;20.55;10.18;;;5.20;35.50;;;;;;4960971;28;20408;-71
2022/03/11 06:57:27;;;;;;;24.67;11.35;;;5.20;35.40;;;;;;4953832;28;20039;-71
2022/03/11 06:59:53;;;;;;;22.30;11.00;;;5.30;35.40;;;;;;4955193;28;20433;-71
2022/03/11 07:02:19;;;;;;;22.17;10.63;;;5.30;35.20;;;;;;4954215;28;20102;-72
2022/03/11 07:04:45;;;;;;;27.27;11.85;;;5.40;35.80;;;;;;4955719;28;20023;-72
2022/03/11 07:07:10;;;;;;;27.70;11.98;;;5.40;35.10;;;;;;4954890;28;20408;-72
2022/03/11 07:09:36;;;;;;;26.75;12.10;;;5.50;35.30;;;;;;4970044;28;20027;-73
2022/03/11 07:12:03;;;;;;;19.85;10.43;;;5.50;35.20;;;;;;4965277;28;20057;-71
2022/03/11 07:14:30;;;;;;;18.90;9.32;;;5.60;35.20;;;;;;4974134;28;20476;-72
2022/03/11 07:16:56;;;;;;;17.45;10.02;;;5.70;35.10;;;;;;4966929;28;20034;-73
2022/03/11 07:19:23;;;;;;;21.08;9.80;;;5.70;34.90;;;;;;4954405;28;20023;-74
2022/03/11 07:21:49;;;;;;;14.20;8.50;;;5.80;34.90;;;;;;4953667;29;20027;-73
2022/03/11 07:24:14;;;;;;;15.88;8.60;;;5.80;34.70;;;;;;4954206;28;20089;-73
2022/03/11 07:26:40;;;;;;;24.75;11.55;;;5.80;34.70;;;;;;4954936;28;20042;-73
2022/03/11 07:29:06;;;;;;;20.00;10.80;;;5.90;34.60;;;;;;4941008;28;20040;-73
2022/03/11 07:31:32;;;;;;;19.92;10.70;;;5.90;34.50;;;;;;4949142;29;20052;-71
2022/03/11 07:33:59;;;;;;;17.15;8.55;;;6.00;34.40;;;;;;4949447;29;20032;-73
2022/03/11 07:36:25;;;;;;;18.52;9.88;;;6.00;34.50;;;;;;4949943;29;20557;-71
2022/03/11 07:38:51;;;;;;;18.10;9.82;;;6.10;34.50;;;;;;4935570;29;20050;-73
2022/03/11 07:41:17;;;;;;;18.80;9.27;;;6.10;34.50;;;;;;4935225;29;20497;-71
2022/03/11 07:43:46;;;;;;;22.60;10.98;;;6.20;34.50;;;;;;4935372;29;20043;-73
2022/03/11 07:46:16;;;;;;;17.92;10.02;;;6.20;34.30;;;;;;4935614;29;20038;-72
2022/03/11 07:48:42;;;;;;;17.70;10.05;;;6.20;34.30;;;;;;4950085;29;20039;-72
2022/03/11 07:51:09;;;;;;;23.52;10.10;;;6.20;34.20;;;;;;4950218;29;20026;-73
2022/03/11 07:53:36;;;;;;;15.65;9.68;;;6.30;34.20;;;;;;4935305;29;20035;-71
2022/03/11 07:56:07;;;;;;;18.10;9.43;;;6.30;34.30;;;;;;4935474;29;20023;-72
2022/03/11 07:58:33;;;;;;;22.52;9.88;;;6.30;34.20;;;;;;4935346;29;20051;-72
2022/03/11 08:00:59;;;;;;;18.67;10.55;;;6.40;34.50;;;;;;4935635;29;20030;-73
2022/03/11 08:03:26;;;;;;;17.10;10.07;;;6.40;34.60;;;;;;4935483;29;20099;-73
2022/03/11 08:05:52;;;;;;;22.33;10.70;;;6.50;34.70;;;;;;4935518;29;20032;-73
2022/03/11 08:08:17;;;;;;;17.35;10.43;;;6.50;34.70;;;;;;4935513;29;20036;-71
2022/03/11 08:10:43;;;;;;;17.17;9.98;;;6.50;34.90;;;;;;4935456;29;20122;-72
2022/03/11 08:13:09;;;;;;;19.20;9.90;;;6.50;34.70;;;;;;4935436;29;20024;-72
2022/03/11 08:15:36;;;;;;;16.55;8.27;;;6.60;34.80;;;;;;4935448;29;20075;-71
2022/03/11 08:18:03;;;;;;;19.98;9.65;;;6.60;34.60;;;;;;4935473;29;20031;-71
2022/03/11 08:20:30;;;;;;;17.38;8.43;;;6.70;34.60;;;;;;4937824;29;20050;-72
2022/03/11 08:22:56;;;;;;;32.50;9.27;;;6.70;34.70;;;;;;4954491;28;20054;-71
2022/03/11 08:25:26;;;;;;;18.33;8.93;;;6.70;34.50;;;;;;4969635;28;20039;-73
2022/03/11 08:27:53;;;;;;;15.60;9.05;;;6.80;34.60;;;;;;4953483;28;20085;-70
2022/03/11 08:30:20;;;;;;;13.25;8.27;;;6.90;34.50;;;;;;4958089;28;20123;-73
2022/03/11 08:32:46;;;;;;;14.43;8.43;;;6.90;34.40;;;;;;4972868;28;20573;-73
2022/03/11 08:35:12;;;;;;;18.77;8.63;;;7.00;34.50;;;;;;4957917;28;20396;-71
2022/03/11 08:37:38;;;;;;;14.52;7.90;;;7.00;34.60;;;;;;4956641;28;20043;-73
2022/03/11 08:40:06;;;;;;;14.35;8.13;;;7.10;34.60;;;;;;4958003;28;20023;-73
2022/03/11 08:42:33;;;;;;;15.75;8.65;;;7.10;34.70;;;;;;4957847;28;20128;-73
2022/03/11 08:45:01;;;;;;;12.88;8.30;;;7.20;34.50;;;;;;4957969;28;20142;-71
2022/03/11 08:47:28;;;;;;;18.70;9.02;;;7.30;34.30;;;;;;4972307;28;20122;-70
2022/03/11 08:49:54;;;;;;;16.65;8.05;;;7.40;34.20;;;;;;4957634;28;20027;-72
2022/03/11 08:52:20;;;;;;;12.23;7.15;;;7.50;34.20;;;;;;4972450;28;20031;-72
2022/03/11 08:54:46;;;;;;;19.30;9.75;;;7.50;34.00;;;;;;4972432;28;20032;-72
2022/03/11 08:57:12;;;;;;;12.75;8.05;;;7.60;34.10;;;;;;4957353;28;20511;-72
2022/03/11 08:59:38;;;;;;;14.45;8.07;;;7.70;33.70;;;;;;4957508;28;20027;-72
2022/03/11 09:02:07;;;;;;;15.38;8.82;;;7.70;33.50;;;;;;4971965;28;20031;-71
2022/03/11 09:04:34;;;;;;;21.42;8.38;;;7.80;33.50;;;;;;4957380;28;20019;-71
2022/03/11 09:07:00;;;;;;;13.10;8.00;;;7.90;33.30;;;;;;4957381;29;20023;-72
2022/03/11 09:09:26;;;;;;;15.27;8.82;;;7.90;33.20;;;;;;4957389;29;20496;-71
2022/03/11 09:11:51;;;;;;;23.45;8.95;;;8.00;33.10;;;;;;4957213;29;20023;-71
2022/03/11 09:14:18;;;;;;;13.95;8.48;;;8.10;33.00;;;;;;4957060;29;20362;-73
2022/03/11 09:16:44;;;;;;;17.88;9.07;;;8.10;33.20;;;;;;4955971;29;20030;-71
2022/03/11 09:19:10;;;;;;;16.15;8.85;;;8.20;33.10;;;;;;4956964;28;20540;-71
2022/03/11 09:21:36;;;;;;;14.15;8.63;;;8.30;32.70;;;;;;4957180;28;20113;-73
2022/03/11 09:24:03;;;;;;;18.63;8.60;;;8.30;32.50;;;;;;4957068;28;20034;-70
2022/03/11 09:26:29;;;;;;;15.98;8.70;;;8.40;32.60;;;;;;4957037;28;20031;-72
2022/03/11 09:28:55;;;;;;;14.05;7.75;;;8.50;32.20;;;;;;4957042;28;20058;-72
2022/03/11 09:31:21;;;;;;;14.25;8.30;;;8.60;32.10;;;;;;4956841;28;20077;-70
2022/03/11 09:33:47;;;;;;;12.48;8.52;;;8.70;32.00;;;;;;4956942;28;20019;-70
2022/03/11 09:36:13;;;;;;;14.85;8.82;;;8.80;31.50;;;;;;4956833;29;20046;-73
2022/03/11 09:38:39;;;;;;;18.30;9.23;;;8.90;31.00;;;;;;4956852;28;20023;-71
2022/03/11 09:41:05;;;;;;;21.10;8.98;;;8.90;30.40;;;;;;4954645;28;20031;-72
2022/03/11 09:43:33;;;;;;;16.38;9.07;;;9.00;30.00;;;;;;4954751;28;20106;-72
2022/03/11 09:45:59;;;;;;;14.68;8.25;;;9.00;30.00;;;;;;4956630;29;20035;-73
2022/03/11 09:48:26;;;;;;;20.30;8.50;;;9.10;30.00;;;;;;4956702;29;20587;-72
2022/03/11 09:50:52;;;;;;;18.58;8.73;;;9.20;29.90;;;;;;4956416;29;20031;-71
2022/03/11 09:53:18;;;;;;;15.10;8.40;;;9.30;29.50;;;;;;4956523;29;20030;-72
2022/03/11 09:55:45;;;;;;;14.88;7.53;;;9.30;29.30;;;;;;4956505;29;20154;-72
2022/03/11 09:58:13;;;;;;;13.63;7.63;;;9.40;29.40;;;;;;4956295;29;20102;-73
2022/03/11 10:00:38;;;;;;;15.75;8.30;;;9.50;29.30;;;;;;4956308;29;20388;-72
2022/03/11 10:03:04;;;;;;;19.02;8.57;;;9.50;29.40;;;;;;4956196;29;20027;-72
2022/03/11 10:05:51;;;;;;;17.42;7.90;;;9.60;29.20;;;;;;4956298;29;20035;-71
2022/03/11 10:08:33;;;;;;;13.57;7.82;;;9.70;29.30;;;;;;4955066;29;20094;-72
2022/03/11 10:11:20;;;;;;;15.65;7.20;;;9.70;29.30;;;;;;4956276;28;20027;-72
2022/03/11 10:13:46;;;;;;;12.32;7.10;;;9.80;28.70;;;;;;4956132;29;20494;-73
2022/03/11 10:16:19;;;;;;;15.07;7.43;;;9.90;28.80;;;;;;4956154;28;20023;-73
2022/03/11 10:18:57;;;;;;;14.30;7.78;;;9.90;28.40;;;;;;4956074;28;20031;-73
2022/03/11 10:21:37;;;;;;;17.30;6.85;;;10.00;28.30;;;;;;4954812;29;20028;-74
2022/03/11 10:24:06;;;;;;;14.38;7.22;;;10.00;27.90;;;;;;4955947;28;20102;-72
2022/03/11 10:26:47;;;;;;;12.85;7.40;;;10.10;27.80;;;;;;4955985;28;20034;-72
2022/03/11 10:29:21;;;;;;;19.58;6.95;;;10.10;27.50;;;;;;4955841;28;20023;-72
2022/03/11 10:31:50;;;;;;;12.32;7.30;;;10.20;27.20;;;;;;4955888;28;20054;-72
2022/03/11 10:34:25;;;;;;;14.10;8.07;;;10.20;26.30;;;;;;4970588;28;20027;-72
2022/03/11 10:36:56;;;;;;;18.38;7.20;;;10.20;26.30;;;;;;4955873;28;20031;-72
2022/03/11 10:39:29;;;;;;;12.07;6.93;;;10.30;26.50;;;;;;4940253;28;20378;-73
2022/03/11 10:41:57;;;;;;;12.05;6.28;;;10.30;26.10;;;;;;4936559;29;20028;-71
2022/03/11 10:44:26;;;;;;;13.15;6.35;;;10.30;26.20;;;;;;4962984;28;20548;-72
2022/03/11 10:47:00;;;;;;;21.15;6.35;;;10.40;25.70;;;;;;4974870;28;20035;-72
2022/03/11 10:49:33;;;;;;;12.27;6.72;;;10.40;25.60;;;;;;4974947;28;20044;-72
2022/03/11 10:52:01;;;;;;;10.10;6.18;;;10.40;25.90;;;;;;4973423;28;20474;-73
2022/03/11 10:54:28;;;;;;;10.48;6.38;;;10.40;25.60;;;;;;4973476;28;20491;-73
2022/03/11 10:57:06;;;;;;;20.25;6.68;;;10.50;25.70;;;;;;4973162;28;20069;-73
2022/03/11 10:59:32;;;;;;;11.93;6.43;;;10.50;25.60;;;;;;4974615;28;20027;-73
2022/03/11 11:01:58;;;;;;;16.92;6.65;;;10.60;25.50;;;;;;4973346;28;20126;-74
2022/03/11 11:04:25;;;;;;;13.40;6.15;;;10.60;25.10;;;;;;4974559;28;20034;-73
2022/03/11 11:06:52;;;;;;;15.25;6.55;;;10.60;25.40;;;;;;4974465;28;20409;-70
2022/03/11 11:09:22;;;;;;;10.63;6.53;;;10.70;25.20;;;;;;4974467;28;20055;-73
2022/03/11 11:11:50;;;;;;;8.77;5.90;;;10.70;25.00;;;;;;4974376;28;20109;-73
2022/03/11 11:14:15;;;;;;;13.73;7.35;;;10.70;25.20;;;;;;4974418;28;20437;-72
2022/03/11 11:16:44;;;;;;;16.80;7.70;;;10.80;25.20;;;;;;4968323;28;20056;-74
2022/03/11 11:19:12;;;;;;;17.02;7.18;;;10.90;25.30;;;;;;4956164;28;20058;-73
2022/03/11 11:21:44;;;;;;;14.20;7.80;;;10.90;25.00;;;;;;4955515;28;20027;-73
2022/03/11 11:24:15;;;;;;;15.35;8.20;;;10.90;24.80;;;;;;4954995;28;20023;-71
2022/03/11 11:26:55;;;;;;;16.38;8.65;;;11.00;24.70;;;;;;4953745;29;20034;-72
2022/03/11 11:29:22;;;;;;;19.48;8.32;;;11.00;24.80;;;;;;4954916;28;20027;-71
2022/03/11 11:31:49;;;;;;;22.83;8.70;;;11.10;24.40;;;;;;4954868;28;20033;-72
2022/03/11 11:34:33;;;;;;;16.90;7.43;;;11.10;24.30;;;;;;4954774;28;20054;-73
2022/03/11 11:37:01;;;;;;;19.63;8.27;;;11.10;24.10;;;;;;4955046;28;20024;-73
2022/03/11 11:39:39;;;;;;;18.52;7.50;;;11.20;24.10;;;;;;4938855;28;20031;-73
2022/03/11 11:42:10;;;;;;;16.67;8.25;;;11.20;23.90;;;;;;4935668;29;20039;-73
2022/03/11 11:44:38;;;;;;;13.43;7.60;;;11.20;23.90;;;;;;4935719;29;20038;-72
2022/03/11 11:47:11;;;;;;;13.48;8.15;;;11.20;23.90;;;;;;4935684;29;20039;-74
2022/03/11 11:49:56;;;;;;;13.05;7.97;;;11.30;24.00;;;;;;4936112;29;20028;-73
2022/03/11 11:52:38;;;;;;;15.77;8.00;;;11.30;24.10;;;;;;4935667;29;20038;-73
2022/03/11 11:55:20;;;;;;;13.98;7.20;;;11.40;24.10;;;;;;4935619;29;20028;-72
2022/03/11 11:57:48;;;;;;;13.70;6.60;;;11.40;23.50;;;;;;4935573;29;20044;-71
2022/03/11 12:00:35;;;;;;;13.45;6.68;;;11.40;23.80;;;;;;4935434;29;20031;-72
2022/03/11 12:03:03;;;;;;;13.38;6.18;;;11.50;23.90;;;;;;4936292;29;20024;-72
2022/03/11 12:05:48;;;;;;;10.13;6.45;;;11.50;23.50;;;;;;4939199;29;20422;-71
2022/03/11 12:08:39;;;;;;;9.45;5.57;;;11.50;23.00;;;;;;4939138;29;20067;-72
2022/03/11 12:11:07;;;;;;;12.38;6.00;;;11.60;23.20;;;;;;4939115;29;20115;-71
2022/03/11 12:13:35;;;;;;;11.95;5.25;;;11.60;23.20;;;;;;4938045;29;20023;-73
2022/03/11 12:16:02;;;;;;;13.57;7.40;;;11.60;23.10;;;;;;4950748;29;20027;-72
2022/03/11 12:18:45;;;;;;;14.10;7.82;;;11.70;23.10;;;;;;4958265;28;20524;-71
2022/03/11 12:21:48;;;;;;;10.70;5.60;;;11.70;22.90;;;;;;4958227;28;20031;-71
2022/03/11 12:24:35;;;;;;;14.23;5.78;;;11.80;23.30;;;;;;4958084;28;20034;-71
2022/03/11 12:27:02;;;;;;;9.35;5.43;;;11.80;22.50;;;;;;4958105;28;20027;-71
2022/03/11 12:29:36;;;;;;;8.77;4.75;;;11.80;22.10;;;;;;4958059;28;20023;-72
2022/03/11 12:32:13;;;;;;;8.27;5.00;;;11.80;22.70;;;;;;4957948;28;20381;-73
2022/03/11 12:34:41;;;;;;;7.97;5.00;;;11.90;22.40;;;;;;4957969;28;20027;-73
2022/03/11 12:37:14;;;;;;;8.88;4.90;;;11.90;22.40;;;;;;4957988;28;20019;-71
2022/03/11 12:39:41;;;;;;;14.00;5.25;;;11.90;22.60;;;;;;4940011;28;20497;-71
2022/03/11 12:42:07;;;;;;;9.35;4.55;;;12.00;22.50;;;;;;4952854;28;20058;-73
2022/03/11 12:44:47;;;;;;;7.20;4.90;;;12.00;22.60;;;;;;4957482;28;20055;-70
2022/03/11 12:47:19;;;;;;;9.57;5.07;;;12.10;22.30;;;;;;4957523;28;20085;-72